sensor_id;sensor_type;location;lat;lon;timestamp;P1;durP1;ratioP1;P2;durP2;ratioP2
8407;SDS011;4241;48.452;9.216;2023-08-07T00:00:41;433.77;;;147.73;;
8407;SDS011;4241;48.452;9.216;2023-08-07T00:03:08;438.50;;;148.77;;
8407;SDS011;4241;48.452;9.216;2023-08-07T00:05:37;451.67;;;155.63;;
8407;SDS011;4241;48.452;9.216;2023-08-07T00:08:03;450.47;;;156.10;;
8407;SDS011;4241;48.452;9.216;2023-08-07T00:10:32;454.33;;;164.00;;
8407;SDS011;4241;48.452;9.216;2023-08-07T00:12:59;455.70;;;167.80;;
8407;SDS011;4241;48.452;9.216;2023-08-07T00:15:26;453.73;;;146.23;;
8407;SDS011;4241;48.452;9.216;2023-08-07T00:17:53;452.83;;;146.17;;
8407;SDS011;4241;48.452;9.216;2023-08-07T00:20:20;444.43;;;147.90;;
8407;SDS011;4241;48.452;9.216;2023-08-07T00:22:47;428.57;;;146.83;;
8407;SDS011;4241;48.452;9.216;2023-08-07T00:25:14;424.53;;;146.30;;
8407;SDS011;4241;48.452;9.216;2023-08-07T00:27:42;425.10;;;145.67;;
8407;SDS011;4241;48.452;9.216;2023-08-07T00:30:09;427.53;;;144.70;;
8407;SDS011;4241;48.452;9.216;2023-08-07T00:32:37;430.67;;;146.00;;
8407;SDS011;4241;48.452;9.216;2023-08-07T00:35:04;439.13;;;147.80;;
8407;SDS011;4241;48.452;9.216;2023-08-07T00:37:33;443.83;;;146.07;;
8407;SDS011;4241;48.452;9.216;2023-08-07T00:40:00;438.27;;;144.43;;
8407;SDS011;4241;48.452;9.216;2023-08-07T00:42:26;434.90;;;144.47;;
8407;SDS011;4241;48.452;9.216;2023-08-07T00:44:55;439.53;;;148.20;;
8407;SDS011;4241;48.452;9.216;2023-08-07T00:47:22;438.57;;;145.70;;
8407;SDS011;4241;48.452;9.216;2023-08-07T00:49:48;441.23;;;146.63;;
8407;SDS011;4241;48.452;9.216;2023-08-07T00:52:16;436.40;;;144.40;;
8407;SDS011;4241;48.452;9.216;2023-08-07T00:54:43;436.20;;;144.67;;
8407;SDS011;4241;48.452;9.216;2023-08-07T00:57:11;431.50;;;144.90;;
8407;SDS011;4241;48.452;9.216;2023-08-07T00:59:40;434.80;;;145.43;;
8407;SDS011;4241;48.452;9.216;2023-08-07T01:02:08;425.23;;;143.23;;
8407;SDS011;4241;48.452;9.216;2023-08-07T01:04:35;425.20;;;144.27;;
8407;SDS011;4241;48.452;9.216;2023-08-07T01:07:02;430.17;;;144.13;;
8407;SDS011;4241;48.452;9.216;2023-08-07T01:09:29;435.87;;;145.07;;
8407;SDS011;4241;48.452;9.216;2023-08-07T01:11:57;419.50;;;142.83;;
8407;SDS011;4241;48.452;9.216;2023-08-07T01:14:36;415.57;;;142.33;;
8407;SDS011;4241;48.452;9.216;2023-08-07T01:17:09;419.63;;;143.93;;
8407;SDS011;4241;48.452;9.216;2023-08-07T01:19:39;423.20;;;145.87;;
8407;SDS011;4241;48.452;9.216;2023-08-07T01:22:09;423.67;;;146.07;;
8407;SDS011;4241;48.452;9.216;2023-08-07T01:24:36;424.33;;;145.80;;
8407;SDS011;4241;48.452;9.216;2023-08-07T01:27:07;427.27;;;147.23;;
8407;SDS011;4241;48.452;9.216;2023-08-07T01:29:43;419.93;;;144.27;;
8407;SDS011;4241;48.452;9.216;2023-08-07T01:32:19;425.43;;;145.03;;
8407;SDS011;4241;48.452;9.216;2023-08-07T01:34:50;427.03;;;144.77;;
8407;SDS011;4241;48.452;9.216;2023-08-07T01:37:20;439.77;;;144.67;;
8407;SDS011;4241;48.452;9.216;2023-08-07T01:39:49;433.63;;;144.63;;
8407;SDS011;4241;48.452;9.216;2023-08-07T01:42:17;436.07;;;147.40;;
8407;SDS011;4241;48.452;9.216;2023-08-07T01:44:44;431.30;;;144.00;;
8407;SDS011;4241;48.452;9.216;2023-08-07T01:47:11;432.53;;;143.10;;
8407;SDS011;4241;48.452;9.216;2023-08-07T01:49:38;435.57;;;145.43;;
8407;SDS011;4241;48.452;9.216;2023-08-07T01:52:06;432.73;;;144.43;;
8407;SDS011;4241;48.452;9.216;2023-08-07T01:54:35;432.13;;;145.60;;
8407;SDS011;4241;48.452;9.216;2023-08-07T01:57:02;434.77;;;146.43;;
8407;SDS011;4241;48.452;9.216;2023-08-07T01:59:29;436.70;;;145.67;;
8407;SDS011;4241;48.452;9.216;2023-08-07T02:01:56;436.43;;;143.70;;
8407;SDS011;4241;48.452;9.216;2023-08-07T02:04:23;443.37;;;147.53;;
8407;SDS011;4241;48.452;9.216;2023-08-07T02:06:50;441.63;;;143.97;;
8407;SDS011;4241;48.452;9.216;2023-08-07T02:09:17;439.03;;;143.93;;
8407;SDS011;4241;48.452;9.216;2023-08-07T02:11:46;440.60;;;143.90;;
8407;SDS011;4241;48.452;9.216;2023-08-07T02:14:12;444.90;;;145.10;;
8407;SDS011;4241;48.452;9.216;2023-08-07T02:16:39;445.80;;;142.70;;
8407;SDS011;4241;48.452;9.216;2023-08-07T02:19:06;446.70;;;144.03;;
8407;SDS011;4241;48.452;9.216;2023-08-07T02:21:33;446.07;;;141.37;;
8407;SDS011;4241;48.452;9.216;2023-08-07T02:23:59;451.63;;;146.53;;
8407;SDS011;4241;48.452;9.216;2023-08-07T02:26:26;449.73;;;142.07;;
8407;SDS011;4241;48.452;9.216;2023-08-07T02:28:54;448.67;;;142.63;;
8407;SDS011;4241;48.452;9.216;2023-08-07T02:31:21;449.73;;;144.47;;
8407;SDS011;4241;48.452;9.216;2023-08-07T02:33:48;444.87;;;143.63;;
8407;SDS011;4241;48.452;9.216;2023-08-07T02:36:15;436.77;;;141.27;;
8407;SDS011;4241;48.452;9.216;2023-08-07T02:38:42;444.30;;;141.87;;
8407;SDS011;4241;48.452;9.216;2023-08-07T02:41:09;443.70;;;143.77;;
8407;SDS011;4241;48.452;9.216;2023-08-07T02:43:36;442.77;;;142.37;;
8407;SDS011;4241;48.452;9.216;2023-08-07T02:46:04;444.20;;;143.67;;
8407;SDS011;4241;48.452;9.216;2023-08-07T02:48:31;437.77;;;143.20;;
8407;SDS011;4241;48.452;9.216;2023-08-07T02:50:57;433.60;;;143.07;;
8407;SDS011;4241;48.452;9.216;2023-08-07T02:53:24;434.40;;;141.23;;
8407;SDS011;4241;48.452;9.216;2023-08-07T02:55:51;438.77;;;145.23;;
8407;SDS011;4241;48.452;9.216;2023-08-07T02:58:18;440.33;;;141.70;;
8407;SDS011;4241;48.452;9.216;2023-08-07T03:00:44;441.40;;;143.80;;
8407;SDS011;4241;48.452;9.216;2023-08-07T03:03:13;438.20;;;142.63;;
8407;SDS011;4241;48.452;9.216;2023-08-07T03:05:47;436.33;;;142.00;;
8407;SDS011;4241;48.452;9.216;2023-08-07T03:08:14;436.90;;;141.40;;
8407;SDS011;4241;48.452;9.216;2023-08-07T03:10:41;444.17;;;142.83;;
8407;SDS011;4241;48.452;9.216;2023-08-07T03:13:08;439.37;;;142.33;;
8407;SDS011;4241;48.452;9.216;2023-08-07T03:15:34;433.17;;;143.17;;
8407;SDS011;4241;48.452;9.216;2023-08-07T03:18:01;436.93;;;142.70;;
8407;SDS011;4241;48.452;9.216;2023-08-07T03:20:29;441.57;;;144.20;;
8407;SDS011;4241;48.452;9.216;2023-08-07T03:22:56;439.47;;;142.23;;
8407;SDS011;4241;48.452;9.216;2023-08-07T03:25:23;440.40;;;143.70;;
8407;SDS011;4241;48.452;9.216;2023-08-07T03:27:50;437.83;;;143.97;;
8407;SDS011;4241;48.452;9.216;2023-08-07T03:30:17;435.50;;;144.70;;
8407;SDS011;4241;48.452;9.216;2023-08-07T03:32:44;433.93;;;142.47;;
8407;SDS011;4241;48.452;9.216;2023-08-07T03:35:10;433.47;;;141.73;;
8407;SDS011;4241;48.452;9.216;2023-08-07T03:37:38;434.87;;;142.77;;
8407;SDS011;4241;48.452;9.216;2023-08-07T03:40:06;431.57;;;141.93;;
8407;SDS011;4241;48.452;9.216;2023-08-07T03:42:33;433.37;;;144.47;;
8407;SDS011;4241;48.452;9.216;2023-08-07T03:45:00;432.33;;;142.23;;
8407;SDS011;4241;48.452;9.216;2023-08-07T03:47:27;428.30;;;142.03;;
8407;SDS011;4241;48.452;9.216;2023-08-07T03:49:53;431.37;;;142.07;;
8407;SDS011;4241;48.452;9.216;2023-08-07T03:52:20;429.03;;;139.20;;
8407;SDS011;4241;48.452;9.216;2023-08-07T03:54:48;428.00;;;141.00;;
8407;SDS011;4241;48.452;9.216;2023-08-07T03:57:15;424.40;;;141.13;;
8407;SDS011;4241;48.452;9.216;2023-08-07T03:59:43;426.00;;;142.20;;
8407;SDS011;4241;48.452;9.216;2023-08-07T04:02:10;423.40;;;140.40;;
8407;SDS011;4241;48.452;9.216;2023-08-07T04:04:37;421.70;;;139.80;;
8407;SDS011;4241;48.452;9.216;2023-08-07T04:07:03;425.47;;;141.23;;
8407;SDS011;4241;48.452;9.216;2023-08-07T04:09:31;428.33;;;142.00;;
8407;SDS011;4241;48.452;9.216;2023-08-07T04:11:59;427.23;;;140.17;;
8407;SDS011;4241;48.452;9.216;2023-08-07T04:14:26;426.73;;;141.07;;
8407;SDS011;4241;48.452;9.216;2023-08-07T04:16:53;424.83;;;138.17;;
8407;SDS011;4241;48.452;9.216;2023-08-07T04:19:20;427.57;;;140.17;;
8407;SDS011;4241;48.452;9.216;2023-08-07T04:21:47;429.97;;;140.00;;
8407;SDS011;4241;48.452;9.216;2023-08-07T04:24:13;434.77;;;144.40;;
8407;SDS011;4241;48.452;9.216;2023-08-07T04:26:40;430.77;;;142.07;;
8407;SDS011;4241;48.452;9.216;2023-08-07T04:29:08;431.93;;;142.20;;
8407;SDS011;4241;48.452;9.216;2023-08-07T04:31:35;429.90;;;141.57;;
8407;SDS011;4241;48.452;9.216;2023-08-07T04:34:02;436.37;;;145.77;;
8407;SDS011;4241;48.452;9.216;2023-08-07T04:36:29;430.67;;;140.43;;
8407;SDS011;4241;48.452;9.216;2023-08-07T04:38:56;430.90;;;138.47;;
8407;SDS011;4241;48.452;9.216;2023-08-07T04:41:23;429.93;;;140.30;;
8407;SDS011;4241;48.452;9.216;2023-08-07T04:43:50;440.93;;;150.27;;
8407;SDS011;4241;48.452;9.216;2023-08-07T04:46:18;434.37;;;143.97;;
8407;SDS011;4241;48.452;9.216;2023-08-07T04:48:45;433.53;;;142.13;;
8407;SDS011;4241;48.452;9.216;2023-08-07T04:51:12;433.77;;;143.07;;
8407;SDS011;4241;48.452;9.216;2023-08-07T04:53:40;434.57;;;144.07;;
8407;SDS011;4241;48.452;9.216;2023-08-07T04:56:07;433.63;;;142.10;;
8407;SDS011;4241;48.452;9.216;2023-08-07T04:58:34;438.57;;;147.97;;
8407;SDS011;4241;48.452;9.216;2023-08-07T05:01:01;436.63;;;144.67;;
8407;SDS011;4241;48.452;9.216;2023-08-07T05:03:29;436.63;;;144.27;;
8407;SDS011;4241;48.452;9.216;2023-08-07T05:05:59;437.13;;;145.70;;
8407;SDS011;4241;48.452;9.216;2023-08-07T05:08:26;436.47;;;143.47;;
8407;SDS011;4241;48.452;9.216;2023-08-07T05:10:53;436.47;;;143.60;;
8407;SDS011;4241;48.452;9.216;2023-08-07T05:13:20;436.97;;;143.00;;
8407;SDS011;4241;48.452;9.216;2023-08-07T05:15:47;436.87;;;143.73;;
8407;SDS011;4241;48.452;9.216;2023-08-07T05:18:14;436.07;;;143.43;;
8407;SDS011;4241;48.452;9.216;2023-08-07T05:20:42;437.00;;;146.70;;
8407;SDS011;4241;48.452;9.216;2023-08-07T05:23:10;434.67;;;144.97;;
8407;SDS011;4241;48.452;9.216;2023-08-07T05:25:36;432.70;;;143.20;;
8407;SDS011;4241;48.452;9.216;2023-08-07T05:28:03;435.77;;;145.67;;
8407;SDS011;4241;48.452;9.216;2023-08-07T05:30:30;436.00;;;145.53;;
8407;SDS011;4241;48.452;9.216;2023-08-07T05:32:57;435.97;;;145.63;;
8407;SDS011;4241;48.452;9.216;2023-08-07T05:35:24;435.80;;;145.67;;
8407;SDS011;4241;48.452;9.216;2023-08-07T05:37:52;438.87;;;147.13;;
8407;SDS011;4241;48.452;9.216;2023-08-07T05:40:19;438.90;;;147.20;;
8407;SDS011;4241;48.452;9.216;2023-08-07T05:42:46;442.00;;;149.57;;
8407;SDS011;4241;48.452;9.216;2023-08-07T05:45:13;439.13;;;144.80;;
8407;SDS011;4241;48.452;9.216;2023-08-07T05:47:39;440.50;;;147.50;;
8407;SDS011;4241;48.452;9.216;2023-08-07T05:50:07;438.97;;;147.17;;
8407;SDS011;4241;48.452;9.216;2023-08-07T05:52:34;439.53;;;147.90;;
8407;SDS011;4241;48.452;9.216;2023-08-07T05:55:02;438.80;;;147.43;;
8407;SDS011;4241;48.452;9.216;2023-08-07T05:57:29;438.97;;;148.33;;
8407;SDS011;4241;48.452;9.216;2023-08-07T05:59:56;437.93;;;146.57;;
8407;SDS011;4241;48.452;9.216;2023-08-07T06:02:26;440.53;;;148.30;;
8407;SDS011;4241;48.452;9.216;2023-08-07T06:04:53;443.67;;;148.13;;
8407;SDS011;4241;48.452;9.216;2023-08-07T06:07:20;443.77;;;149.47;;
8407;SDS011;4241;48.452;9.216;2023-08-07T06:09:46;439.87;;;149.07;;
8407;SDS011;4241;48.452;9.216;2023-08-07T06:12:14;445.30;;;153.73;;
8407;SDS011;4241;48.452;9.216;2023-08-07T06:14:41;446.47;;;152.80;;
8407;SDS011;4241;48.452;9.216;2023-08-07T06:17:09;447.77;;;153.20;;
8407;SDS011;4241;48.452;9.216;2023-08-07T06:19:35;447.70;;;152.33;;
8407;SDS011;4241;48.452;9.216;2023-08-07T06:22:02;447.13;;;151.90;;
8407;SDS011;4241;48.452;9.216;2023-08-07T06:24:30;448.03;;;152.87;;
8407;SDS011;4241;48.452;9.216;2023-08-07T06:26:56;445.00;;;150.47;;
8407;SDS011;4241;48.452;9.216;2023-08-07T06:29:24;447.50;;;151.50;;
8407;SDS011;4241;48.452;9.216;2023-08-07T06:31:51;448.30;;;153.00;;
8407;SDS011;4241;48.452;9.216;2023-08-07T06:34:18;445.07;;;149.77;;
8407;SDS011;4241;48.452;9.216;2023-08-07T06:36:45;448.30;;;151.47;;
8407;SDS011;4241;48.452;9.216;2023-08-07T06:39:12;449.13;;;153.30;;
8407;SDS011;4241;48.452;9.216;2023-08-07T06:41:38;449.03;;;153.10;;
8407;SDS011;4241;48.452;9.216;2023-08-07T06:44:05;450.67;;;157.83;;
8407;SDS011;4241;48.452;9.216;2023-08-07T06:46:33;449.80;;;155.27;;
8407;SDS011;4241;48.452;9.216;2023-08-07T06:49:00;449.30;;;151.23;;
8407;SDS011;4241;48.452;9.216;2023-08-07T06:51:27;448.77;;;153.10;;
8407;SDS011;4241;48.452;9.216;2023-08-07T06:53:54;455.17;;;162.63;;
8407;SDS011;4241;48.452;9.216;2023-08-07T06:56:20;449.07;;;152.07;;
8407;SDS011;4241;48.452;9.216;2023-08-07T06:58:47;448.13;;;152.90;;
8407;SDS011;4241;48.452;9.216;2023-08-07T07:01:14;452.67;;;156.33;;
8407;SDS011;4241;48.452;9.216;2023-08-07T07:03:42;456.60;;;160.23;;
8407;SDS011;4241;48.452;9.216;2023-08-07T07:06:11;453.67;;;159.17;;
8407;SDS011;4241;48.452;9.216;2023-08-07T07:08:38;454.13;;;158.87;;
8407;SDS011;4241;48.452;9.216;2023-08-07T07:11:05;453.10;;;157.10;;
8407;SDS011;4241;48.452;9.216;2023-08-07T07:13:33;453.20;;;157.17;;
8407;SDS011;4241;48.452;9.216;2023-08-07T07:16:00;456.57;;;159.53;;
8407;SDS011;4241;48.452;9.216;2023-08-07T07:18:27;457.50;;;160.97;;
8407;SDS011;4241;48.452;9.216;2023-08-07T07:20:58;457.47;;;158.53;;
8407;SDS011;4241;48.452;9.216;2023-08-07T07:23:25;459.17;;;162.00;;
8407;SDS011;4241;48.452;9.216;2023-08-07T07:25:52;456.83;;;158.90;;
8407;SDS011;4241;48.452;9.216;2023-08-07T07:28:19;459.53;;;159.67;;
8407;SDS011;4241;48.452;9.216;2023-08-07T07:30:46;461.37;;;161.37;;
8407;SDS011;4241;48.452;9.216;2023-08-07T07:33:13;629.50;;;343.37;;
8407;SDS011;4241;48.452;9.216;2023-08-07T07:35:40;463.67;;;161.17;;
8407;SDS011;4241;48.452;9.216;2023-08-07T07:38:08;463.63;;;162.50;;
8407;SDS011;4241;48.452;9.216;2023-08-07T07:40:35;470.17;;;170.40;;
8407;SDS011;4241;48.452;9.216;2023-08-07T07:43:02;464.37;;;162.63;;
8407;SDS011;4241;48.452;9.216;2023-08-07T07:45:29;464.73;;;161.53;;
8407;SDS011;4241;48.452;9.216;2023-08-07T07:47:58;475.60;;;174.30;;
8407;SDS011;4241;48.452;9.216;2023-08-07T07:50:25;460.20;;;157.60;;
8407;SDS011;4241;48.452;9.216;2023-08-07T07:52:52;462.83;;;161.30;;
8407;SDS011;4241;48.452;9.216;2023-08-07T07:55:20;476.27;;;174.70;;
8407;SDS011;4241;48.452;9.216;2023-08-07T07:57:47;461.87;;;158.93;;
8407;SDS011;4241;48.452;9.216;2023-08-07T08:00:14;462.23;;;159.87;;
8407;SDS011;4241;48.452;9.216;2023-08-07T08:02:41;465.20;;;161.80;;
8407;SDS011;4241;48.452;9.216;2023-08-07T08:05:09;467.80;;;165.07;;
8407;SDS011;4241;48.452;9.216;2023-08-07T08:07:37;461.33;;;158.40;;
8407;SDS011;4241;48.452;9.216;2023-08-07T08:10:05;470.13;;;170.90;;
8407;SDS011;4241;48.452;9.216;2023-08-07T08:12:33;466.70;;;167.10;;
8407;SDS011;4241;48.452;9.216;2023-08-07T08:15:00;470.30;;;172.97;;
8407;SDS011;4241;48.452;9.216;2023-08-07T08:17:27;471.07;;;173.43;;
8407;SDS011;4241;48.452;9.216;2023-08-07T08:19:54;468.00;;;172.77;;
8407;SDS011;4241;48.452;9.216;2023-08-07T08:22:21;473.83;;;181.83;;
8407;SDS011;4241;48.452;9.216;2023-08-07T08:24:49;472.67;;;181.50;;
8407;SDS011;4241;48.452;9.216;2023-08-07T08:27:15;491.60;;;208.50;;
8407;SDS011;4241;48.452;9.216;2023-08-07T08:29:44;476.07;;;188.73;;
8407;SDS011;4241;48.452;9.216;2023-08-07T08:32:11;474.53;;;187.63;;
8407;SDS011;4241;48.452;9.216;2023-08-07T08:34:38;474.67;;;187.90;;
8407;SDS011;4241;48.452;9.216;2023-08-07T08:37:05;473.03;;;185.57;;
8407;SDS011;4241;48.452;9.216;2023-08-07T08:39:33;472.17;;;182.67;;
8407;SDS011;4241;48.452;9.216;2023-08-07T08:41:59;473.33;;;185.73;;
8407;SDS011;4241;48.452;9.216;2023-08-07T08:44:27;475.80;;;190.23;;
8407;SDS011;4241;48.452;9.216;2023-08-07T08:46:59;478.00;;;195.00;;
8407;SDS011;4241;48.452;9.216;2023-08-07T08:49:28;475.67;;;192.80;;
8407;SDS011;4241;48.452;9.216;2023-08-07T08:51:59;478.03;;;199.07;;
8407;SDS011;4241;48.452;9.216;2023-08-07T08:54:26;479.93;;;199.57;;
8407;SDS011;4241;48.452;9.216;2023-08-07T08:56:53;479.57;;;200.57;;
8407;SDS011;4241;48.452;9.216;2023-08-07T08:59:21;478.67;;;199.60;;
8407;SDS011;4241;48.452;9.216;2023-08-07T09:01:49;478.13;;;199.10;;
8407;SDS011;4241;48.452;9.216;2023-08-07T09:04:19;479.60;;;202.30;;
8407;SDS011;4241;48.452;9.216;2023-08-07T09:06:46;478.87;;;199.83;;
8407;SDS011;4241;48.452;9.216;2023-08-07T09:09:13;481.30;;;201.77;;
8407;SDS011;4241;48.452;9.216;2023-08-07T09:11:43;478.83;;;199.43;;
8407;SDS011;4241;48.452;9.216;2023-08-07T09:14:13;479.50;;;198.97;;
8407;SDS011;4241;48.452;9.216;2023-08-07T09:16:43;481.57;;;200.60;;
8407;SDS011;4241;48.452;9.216;2023-08-07T09:19:11;477.77;;;195.50;;
8407;SDS011;4241;48.452;9.216;2023-08-07T09:21:39;478.47;;;197.17;;
8407;SDS011;4241;48.452;9.216;2023-08-07T09:24:06;487.63;;;209.30;;
8407;SDS011;4241;48.452;9.216;2023-08-07T09:26:33;478.20;;;196.73;;
8407;SDS011;4241;48.452;9.216;2023-08-07T09:29:00;475.37;;;193.63;;
8407;SDS011;4241;48.452;9.216;2023-08-07T09:31:28;477.67;;;194.73;;
8407;SDS011;4241;48.452;9.216;2023-08-07T09:34:00;484.07;;;204.87;;
8407;SDS011;4241;48.452;9.216;2023-08-07T09:36:29;479.20;;;197.30;;
8407;SDS011;4241;48.452;9.216;2023-08-07T09:38:58;484.67;;;205.17;;
8407;SDS011;4241;48.452;9.216;2023-08-07T09:41:26;476.50;;;194.53;;
8407;SDS011;4241;48.452;9.216;2023-08-07T09:43:55;480.80;;;197.67;;
8407;SDS011;4241;48.452;9.216;2023-08-07T09:46:22;488.67;;;207.27;;
8407;SDS011;4241;48.452;9.216;2023-08-07T09:48:49;489.63;;;207.00;;
8407;SDS011;4241;48.452;9.216;2023-08-07T09:51:15;479.00;;;194.57;;
8407;SDS011;4241;48.452;9.216;2023-08-07T09:53:42;482.90;;;202.17;;
8407;SDS011;4241;48.452;9.216;2023-08-07T09:56:11;475.53;;;191.47;;
8407;SDS011;4241;48.452;9.216;2023-08-07T09:58:42;476.37;;;196.53;;
8407;SDS011;4241;48.452;9.216;2023-08-07T10:01:12;489.90;;;215.10;;
8407;SDS011;4241;48.452;9.216;2023-08-07T10:03:42;484.27;;;206.60;;
8407;SDS011;4241;48.452;9.216;2023-08-07T10:06:09;480.30;;;201.37;;
8407;SDS011;4241;48.452;9.216;2023-08-07T10:08:37;486.73;;;208.57;;
8407;SDS011;4241;48.452;9.216;2023-08-07T10:11:05;476.40;;;196.97;;
8407;SDS011;4241;48.452;9.216;2023-08-07T10:13:35;477.53;;;196.23;;
8407;SDS011;4241;48.452;9.216;2023-08-07T10:16:03;478.80;;;200.17;;
8407;SDS011;4241;48.452;9.216;2023-08-07T10:18:30;478.17;;;201.63;;
8407;SDS011;4241;48.452;9.216;2023-08-07T10:20:57;482.87;;;212.30;;
8407;SDS011;4241;48.452;9.216;2023-08-07T10:23:25;487.63;;;218.53;;
8407;SDS011;4241;48.452;9.216;2023-08-07T10:25:52;488.43;;;224.27;;
8407;SDS011;4241;48.452;9.216;2023-08-07T10:28:23;489.50;;;227.97;;
8407;SDS011;4241;48.452;9.216;2023-08-07T10:30:53;487.27;;;229.77;;
8407;SDS011;4241;48.452;9.216;2023-08-07T10:33:20;489.03;;;232.20;;
8407;SDS011;4241;48.452;9.216;2023-08-07T10:35:51;486.60;;;226.27;;
8407;SDS011;4241;48.452;9.216;2023-08-07T10:38:19;487.90;;;230.60;;
8407;SDS011;4241;48.452;9.216;2023-08-07T10:40:58;488.83;;;229.43;;
8407;SDS011;4241;48.452;9.216;2023-08-07T10:43:26;489.77;;;230.80;;
8407;SDS011;4241;48.452;9.216;2023-08-07T10:45:55;487.67;;;232.10;;
8407;SDS011;4241;48.452;9.216;2023-08-07T10:48:29;488.67;;;231.33;;
8407;SDS011;4241;48.452;9.216;2023-08-07T10:50:56;489.73;;;236.93;;
8407;SDS011;4241;48.452;9.216;2023-08-07T10:53:29;491.20;;;240.77;;
8407;SDS011;4241;48.452;9.216;2023-08-07T10:55:57;489.30;;;239.40;;
8407;SDS011;4241;48.452;9.216;2023-08-07T10:58:24;493.27;;;242.73;;
8407;SDS011;4241;48.452;9.216;2023-08-07T11:00:52;495.03;;;245.27;;
8407;SDS011;4241;48.452;9.216;2023-08-07T11:03:45;490.67;;;237.77;;
8407;SDS011;4241;48.452;9.216;2023-08-07T11:06:14;490.40;;;236.67;;
8407;SDS011;4241;48.452;9.216;2023-08-07T11:08:42;488.70;;;232.57;;
8407;SDS011;4241;48.452;9.216;2023-08-07T11:11:09;486.47;;;229.40;;
8407;SDS011;4241;48.452;9.216;2023-08-07T11:13:36;486.63;;;226.10;;
8407;SDS011;4241;48.452;9.216;2023-08-07T11:16:03;485.77;;;222.10;;
8407;SDS011;4241;48.452;9.216;2023-08-07T11:18:32;486.63;;;223.23;;
8407;SDS011;4241;48.452;9.216;2023-08-07T11:21:00;483.83;;;217.50;;
8407;SDS011;4241;48.452;9.216;2023-08-07T11:23:27;491.43;;;225.10;;
8407;SDS011;4241;48.452;9.216;2023-08-07T11:25:54;484.03;;;216.27;;
8407;SDS011;4241;48.452;9.216;2023-08-07T11:28:22;483.67;;;215.60;;
8407;SDS011;4241;48.452;9.216;2023-08-07T11:30:50;483.73;;;215.20;;
8407;SDS011;4241;48.452;9.216;2023-08-07T11:33:17;522.57;;;257.43;;
8407;SDS011;4241;48.452;9.216;2023-08-07T11:35:46;489.13;;;227.73;;
8407;SDS011;4241;48.452;9.216;2023-08-07T11:38:15;484.87;;;224.47;;
8407;SDS011;4241;48.452;9.216;2023-08-07T11:40:56;486.80;;;228.17;;
8407;SDS011;4241;48.452;9.216;2023-08-07T11:43:24;484.07;;;221.97;;
8407;SDS011;4241;48.452;9.216;2023-08-07T11:45:50;484.00;;;220.90;;
8407;SDS011;4241;48.452;9.216;2023-08-07T11:48:18;483.40;;;215.97;;
8407;SDS011;4241;48.452;9.216;2023-08-07T11:50:44;483.77;;;215.43;;
8407;SDS011;4241;48.452;9.216;2023-08-07T11:53:13;484.80;;;214.73;;
8407;SDS011;4241;48.452;9.216;2023-08-07T11:55:46;481.77;;;209.67;;
8407;SDS011;4241;48.452;9.216;2023-08-07T11:58:13;482.13;;;209.23;;
8407;SDS011;4241;48.452;9.216;2023-08-07T12:00:41;480.10;;;203.53;;
8407;SDS011;4241;48.452;9.216;2023-08-07T12:03:22;482.20;;;208.30;;
8407;SDS011;4241;48.452;9.216;2023-08-07T12:05:53;478.10;;;201.40;;
8407;SDS011;4241;48.452;9.216;2023-08-07T12:08:21;479.23;;;204.73;;
8407;SDS011;4241;48.452;9.216;2023-08-07T12:10:51;480.33;;;205.23;;
8407;SDS011;4241;48.452;9.216;2023-08-07T12:13:20;483.63;;;212.07;;
8407;SDS011;4241;48.452;9.216;2023-08-07T12:15:50;480.33;;;207.60;;
8407;SDS011;4241;48.452;9.216;2023-08-07T12:18:18;481.27;;;208.90;;
8407;SDS011;4241;48.452;9.216;2023-08-07T12:20:45;478.83;;;203.23;;
8407;SDS011;4241;48.452;9.216;2023-08-07T12:23:15;479.83;;;202.03;;
8407;SDS011;4241;48.452;9.216;2023-08-07T12:25:42;501.80;;;226.53;;
8407;SDS011;4241;48.452;9.216;2023-08-07T12:28:09;479.33;;;202.40;;
8407;SDS011;4241;48.452;9.216;2023-08-07T12:30:36;476.80;;;199.27;;
8407;SDS011;4241;48.452;9.216;2023-08-07T12:33:03;515.13;;;229.67;;
8407;SDS011;4241;48.452;9.216;2023-08-07T12:35:32;475.67;;;195.27;;
8407;SDS011;4241;48.452;9.216;2023-08-07T12:37:59;476.50;;;196.30;;
8407;SDS011;4241;48.452;9.216;2023-08-07T12:40:28;476.27;;;193.37;;
8407;SDS011;4241;48.452;9.216;2023-08-07T12:42:55;475.03;;;191.40;;
8407;SDS011;4241;48.452;9.216;2023-08-07T12:45:25;473.13;;;189.40;;
8407;SDS011;4241;48.452;9.216;2023-08-07T12:47:52;474.77;;;188.83;;
8407;SDS011;4241;48.452;9.216;2023-08-07T12:50:18;474.77;;;190.90;;
8407;SDS011;4241;48.452;9.216;2023-08-07T12:52:45;476.13;;;194.87;;
8407;SDS011;4241;48.452;9.216;2023-08-07T12:55:12;473.70;;;190.37;;
8407;SDS011;4241;48.452;9.216;2023-08-07T12:57:41;473.97;;;193.73;;
8407;SDS011;4241;48.452;9.216;2023-08-07T13:00:08;474.43;;;195.17;;
8407;SDS011;4241;48.452;9.216;2023-08-07T13:02:39;497.27;;;218.33;;
8407;SDS011;4241;48.452;9.216;2023-08-07T13:05:07;476.50;;;197.83;;
8407;SDS011;4241;48.452;9.216;2023-08-07T13:07:35;477.43;;;200.00;;
8407;SDS011;4241;48.452;9.216;2023-08-07T13:10:03;477.20;;;198.10;;
8407;SDS011;4241;48.452;9.216;2023-08-07T13:12:33;479.07;;;203.40;;
8407;SDS011;4241;48.452;9.216;2023-08-07T13:15:02;475.43;;;198.10;;
8407;SDS011;4241;48.452;9.216;2023-08-07T13:17:30;477.27;;;198.97;;
8407;SDS011;4241;48.452;9.216;2023-08-07T13:19:57;476.77;;;199.73;;
8407;SDS011;4241;48.452;9.216;2023-08-07T13:22:24;477.40;;;198.50;;
8407;SDS011;4241;48.452;9.216;2023-08-07T13:24:51;479.20;;;202.33;;
8407;SDS011;4241;48.452;9.216;2023-08-07T13:27:18;476.83;;;199.37;;
8407;SDS011;4241;48.452;9.216;2023-08-07T13:29:45;477.27;;;199.00;;
8407;SDS011;4241;48.452;9.216;2023-08-07T13:32:14;477.27;;;201.60;;
8407;SDS011;4241;48.452;9.216;2023-08-07T13:34:43;479.77;;;203.90;;
8407;SDS011;4241;48.452;9.216;2023-08-07T13:37:10;478.73;;;204.40;;
8407;SDS011;4241;48.452;9.216;2023-08-07T13:39:37;480.30;;;207.97;;
8407;SDS011;4241;48.452;9.216;2023-08-07T13:42:04;483.67;;;214.27;;
8407;SDS011;4241;48.452;9.216;2023-08-07T13:44:31;482.70;;;216.90;;
8407;SDS011;4241;48.452;9.216;2023-08-07T13:46:58;485.77;;;222.17;;
8407;SDS011;4241;48.452;9.216;2023-08-07T13:49:26;487.17;;;227.63;;
8407;SDS011;4241;48.452;9.216;2023-08-07T13:51:53;487.60;;;229.73;;
8407;SDS011;4241;48.452;9.216;2023-08-07T13:54:21;487.63;;;234.60;;
8407;SDS011;4241;48.452;9.216;2023-08-07T13:56:48;488.97;;;235.50;;
8407;SDS011;4241;48.452;9.216;2023-08-07T13:59:15;489.27;;;238.10;;
8407;SDS011;4241;48.452;9.216;2023-08-07T14:01:42;486.93;;;229.73;;
8407;SDS011;4241;48.452;9.216;2023-08-07T14:04:09;488.17;;;234.50;;
8407;SDS011;4241;48.452;9.216;2023-08-07T14:06:37;487.27;;;230.70;;
8407;SDS011;4241;48.452;9.216;2023-08-07T14:09:04;486.37;;;227.07;;
8407;SDS011;4241;48.452;9.216;2023-08-07T14:11:31;484.43;;;223.70;;
8407;SDS011;4241;48.452;9.216;2023-08-07T14:13:57;490.17;;;227.40;;
8407;SDS011;4241;48.452;9.216;2023-08-07T14:16:24;483.87;;;220.97;;
8407;SDS011;4241;48.452;9.216;2023-08-07T14:18:51;484.23;;;222.73;;
8407;SDS011;4241;48.452;9.216;2023-08-07T14:21:18;486.70;;;227.27;;
8407;SDS011;4241;48.452;9.216;2023-08-07T14:23:46;488.87;;;229.67;;